CYBW/YBW METAR and TAF weather

Enter ICAO airport designator
Station Type Date Time Source
CYBW METAR 2020/01/23 09:00 UTC NOAA

CYBW 230900Z AUTO 21004KT 9SM OVC220 M10/M15 A2990 RMK SLP182


Station Type Date Time Source
CYBW Decoded METAR 2020/01/23 09:00 UTC NOAA

Calgary / Springbank, Canada (CYBW) 51-06N 114-22W
Jan 23, 2020 - 04:00 AM EST / 2020.01.23 0900 UTC
Wind: from the SSW (210 degrees) at 5 MPH (4 KT):0
Visibility: 9 mile(s):0
Sky conditions: overcast
Temperature: 14 F (-10 C)
Windchill: 6 F (-14 C):1
Dew Point: 5 F (-15 C)
Relative Humidity: 66%
Pressure (altimeter): 29.9 in. Hg (1012 hPa)
ob: CYBW 230900Z AUTO 21004KT 9SM OVC220 M10/M15 A2990 RMK SLP182
cycle: 9

Station Type Date Time Source
CYBW TAF 2020/01/22 18:00 UTC NOAA

TAF CYBW 221738Z 2218/2305 27005KT P6SM FEW160 SCT210
BECMG 2218/2220 28010G20KT
FM230200 28010KT P6SM SKC
RMK FCST BASED ON AUTO OBS. NXT FCST BY 230000Z

Example: see airport list